sensor_id;sensor_type;location;lat;lon;timestamp;pressure;altitude;pressure_sealevel;temperature
68342;BMP280;55668;52.310;21.066;2022-07-01T00:16:29;100550.0;;;23.5
68342;BMP280;55668;52.310;21.066;2022-07-01T00:31:17;100540.0;;;23.4
68342;BMP280;55668;52.310;21.066;2022-07-01T00:47:32;100550.0;;;23.3
68342;BMP280;55668;52.310;21.066;2022-07-01T01:34:18;100620.0;;;23.4
68342;BMP280;55668;52.310;21.066;2022-07-01T01:52:02;100660.0;;;23.3
68342;BMP280;55668;52.310;21.066;2022-07-01T02:49:06;100680.0;;;22.8
68342;BMP280;55668;52.310;21.066;2022-07-01T03:04:20;100670.0;;;22.5
68342;BMP280;55668;52.310;21.066;2022-07-01T03:36:11;100680.0;;;22.6
68342;BMP280;55668;52.310;21.066;2022-07-01T04:06:09;100670.0;;;22.8
68342;BMP280;55668;52.310;21.066;2022-07-01T04:22:23;100670.0;;;23.0
68342;BMP280;55668;52.310;21.066;2022-07-01T04:38:44;100650.0;;;23.3
68342;BMP280;55668;52.310;21.066;2022-07-01T04:51:44;100650.0;;;23.8
68342;BMP280;55668;52.310;21.066;2022-07-01T05:07:27;100650.0;;;24.6
68342;BMP280;55668;52.310;21.066;2022-07-01T05:22:57;100640.0;;;25.5
68342;BMP280;55668;52.310;21.066;2022-07-01T05:38:06;100630.0;;;26.3
68342;BMP280;55668;52.310;21.066;2022-07-01T05:53:07;100630.0;;;27.3
68342;BMP280;55668;52.310;21.066;2022-07-01T06:09:10;100620.0;;;28.2
68342;BMP280;55668;52.310;21.066;2022-07-01T06:24:12;100620.0;;;28.9
68342;BMP280;55668;52.310;21.066;2022-07-01T06:39:44;100610.0;;;29.6
68342;BMP280;55668;52.310;21.066;2022-07-01T06:55:12;100610.0;;;30.0
68342;BMP280;55668;52.310;21.066;2022-07-01T07:11:59;100610.0;;;30.6
68342;BMP280;55668;52.310;21.066;2022-07-01T07:26:34;100610.0;;;30.9
68342;BMP280;55668;52.310;21.066;2022-07-01T07:43:01;100600.0;;;31.2
68342;BMP280;55668;52.310;21.066;2022-07-01T07:58:12;100590.0;;;31.6
68342;BMP280;55668;52.310;21.066;2022-07-01T08:11:13;100590.0;;;31.8
68342;BMP280;55668;52.310;21.066;2022-07-01T08:26:58;100590.0;;;32.3
68342;BMP280;55668;52.310;21.066;2022-07-01T08:42:17;100600.0;;;32.9
68342;BMP280;55668;52.310;21.066;2022-07-01T09:14:09;100580.0;;;33.0
68342;BMP280;55668;52.310;21.066;2022-07-01T09:28:22;100580.0;;;33.2
68342;BMP280;55668;52.310;21.066;2022-07-01T09:43:35;100580.0;;;33.3
68342;BMP280;55668;52.310;21.066;2022-07-01T10:15:14;100550.0;;;33.4
68342;BMP280;55668;52.310;21.066;2022-07-01T11:01:06;100540.0;;;33.7
68342;BMP280;55668;52.310;21.066;2022-07-01T11:17:47;100530.0;;;33.8
68342;BMP280;55668;52.310;21.066;2022-07-01T12:01:37;100490.0;;;33.7
68342;BMP280;55668;52.310;21.066;2022-07-01T12:17:06;100470.0;;;33.8
68342;BMP280;55668;52.310;21.066;2022-07-01T13:04:01;100440.0;;;33.7
68342;BMP280;55668;52.310;21.066;2022-07-01T14:05:03;100400.0;;;33.5
68342;BMP280;55668;52.310;21.066;2022-07-01T14:22:47;100390.0;;;33.6
68342;BMP280;55668;52.310;21.066;2022-07-01T14:34:47;100390.0;;;33.4
68342;BMP280;55668;52.310;21.066;2022-07-01T14:53:41;100380.0;;;33.3
68342;BMP280;55668;52.310;21.066;2022-07-01T15:26:04;100360.0;;;33.2
68342;BMP280;55668;52.310;21.066;2022-07-01T15:37:38;100360.0;;;33.0
68342;BMP280;55668;52.310;21.066;2022-07-01T16:08:40;100380.0;;;32.9
68342;BMP280;55668;52.310;21.066;2022-07-01T16:22:33;100370.0;;;32.8
68342;BMP280;55668;52.310;21.066;2022-07-01T16:40:35;100380.0;;;32.7
68342;BMP280;55668;52.310;21.066;2022-07-01T17:11:46;100330.0;;;32.5
68342;BMP280;55668;52.310;21.066;2022-07-01T17:23:55;100270.0;;;32.4
68342;BMP280;55668;52.310;21.066;2022-07-01T17:40:54;100320.0;;;32.2
68342;BMP280;55668;52.310;21.066;2022-07-01T17:54:54;100380.0;;;31.9
68342;BMP280;55668;52.310;21.066;2022-07-01T18:09:48;100450.0;;;31.7
68342;BMP280;55668;52.310;21.066;2022-07-01T18:26:45;100420.0;;;31.3
68342;BMP280;55668;52.310;21.066;2022-07-01T18:40:24;100440.0;;;31.0
68342;BMP280;55668;52.310;21.066;2022-07-01T18:56:13;100450.0;;;30.7
68342;BMP280;55668;52.310;21.066;2022-07-01T19:11:58;100470.0;;;30.3
68342;BMP280;55668;52.310;21.066;2022-07-01T19:27:48;100490.0;;;30.0
68342;BMP280;55668;52.310;21.066;2022-07-01T19:45:25;100560.0;;;29.9
68342;BMP280;55668;52.310;21.066;2022-07-01T19:57:13;100540.0;;;29.7
68342;BMP280;55668;52.310;21.066;2022-07-01T20:19:09;100570.0;;;29.4
68342;BMP280;55668;52.310;21.066;2022-07-01T20:29:24;100580.0;;;29.2
68342;BMP280;55668;52.310;21.066;2022-07-01T20:58:33;100630.0;;;28.8
68342;BMP280;55668;52.310;21.066;2022-07-01T21:19:47;100610.0;;;28.6
68342;BMP280;55668;52.310;21.066;2022-07-01T21:29:45;100610.0;;;28.4
68342;BMP280;55668;52.310;21.066;2022-07-01T21:44:30;100640.0;;;28.2
68342;BMP280;55668;52.310;21.066;2022-07-01T22:00:45;100830.0;;;26.3
68342;BMP280;55668;52.310;21.066;2022-07-01T22:17:32;100840.0;;;24.5
